createdAt,value
2018-01-24T00:00:05.112Z,72.1
2018-01-24T00:15:05.168Z,71.4
2018-01-24T00:30:04.985Z,71.7
2018-01-24T00:45:04.866Z,71.5
2018-01-24T01:00:04.533Z,71.8
2018-01-24T01:15:04.620Z,71.6
2018-01-24T01:30:05.064Z,71.7
2018-01-24T01:45:04.956Z,72
2018-01-24T02:00:04.624Z,72.4
2018-01-24T02:30:04.802Z,71.7
2018-01-24T02:45:04.699Z,71.7
2018-01-24T03:00:04.594Z,71.9
2018-01-24T03:15:05.245Z,71.7
2018-01-24T03:30:05.169Z,72.3
2018-01-24T03:45:04.714Z,71.9
2018-01-24T04:00:04.664Z,72.1
2018-01-24T04:15:04.842Z,72.5
2018-01-24T04:30:05.249Z,72.7
2018-01-24T04:45:05.380Z,73.2
2018-01-24T05:00:04.535Z,73.5
2018-01-24T05:15:05.156Z,73
2018-01-24T05:30:05.168Z,73.4
2018-01-24T05:45:06.473Z,73.8
2018-01-24T06:00:05.436Z,73.4
2018-01-24T06:15:04.313Z,72.7
2018-01-24T06:30:04.429Z,73.5
2018-01-24T06:45:04.330Z,73.3
2018-01-24T07:00:05.198Z,73
2018-01-24T07:15:05.136Z,73.8
2018-01-24T07:30:07.859Z,73.8
2018-01-24T07:45:05.834Z,73.2
2018-01-24T08:00:05.755Z,73.6
2018-01-24T08:15:06.278Z,75
2018-01-24T08:30:04.406Z,75.2
2018-01-24T08:45:04.289Z,71.7
2018-01-24T09:00:04.737Z,70.2
2018-01-24T09:15:05.154Z,67.3
2018-01-24T09:30:04.396Z,62.8
2018-01-24T09:45:04.863Z,59.6
2018-01-24T10:00:04.317Z,61.1
2018-01-24T10:15:04.748Z,62.8
2018-01-24T10:30:04.306Z,63.1
2018-01-24T10:45:04.701Z,63.2
2018-01-24T11:00:04.575Z,63.6
2018-01-24T11:15:05.027Z,63
2018-01-24T11:30:04.621Z,63.1
2018-01-24T11:45:08.387Z,62.5
2018-01-24T12:00:04.779Z,62.8
2018-01-24T12:15:04.634Z,61.9
2018-01-24T12:30:04.814Z,61.4
2018-01-24T12:45:04.281Z,60.8
2018-01-24T13:00:04.689Z,60.6
2018-01-24T13:15:05.087Z,61.3
2018-01-24T13:30:04.700Z,60.5
2018-01-24T13:45:05.022Z,60
2018-01-24T14:00:05.491Z,60.2
2018-01-24T14:15:04.414Z,60.1
2018-01-24T14:30:05.609Z,60.2
2018-01-24T14:45:04.489Z,60.8
2018-01-24T15:00:04.972Z,61.1
2018-01-24T15:15:04.935Z,61.8
2018-01-24T15:30:05.055Z,62.5
2018-01-24T15:45:04.382Z,62.9
2018-01-24T16:00:05.353Z,63.1
2018-01-24T16:15:04.752Z,63.6
2018-01-24T16:30:04.283Z,63.6
2018-01-24T16:45:05.382Z,64.6
2018-01-24T17:00:04.761Z,64.9
2018-01-24T17:15:05.188Z,65.7
2018-01-24T17:30:05.414Z,65.8
2018-01-24T17:45:07.932Z,66.2
2018-01-24T18:00:05.648Z,66.7
2018-01-24T18:15:04.427Z,66.5
2018-01-24T18:30:05.246Z,66.9
2018-01-24T18:45:05.343Z,66.5
2018-01-24T19:00:05.808Z,67.7
2018-01-24T19:15:04.650Z,67
2018-01-24T19:30:05.032Z,66.7
2018-01-24T19:45:05.116Z,68.4
2018-01-24T20:00:05.128Z,67.2
2018-01-24T20:15:05.988Z,68.2
2018-01-24T20:30:05.584Z,67.8
2018-01-24T20:45:04.897Z,68.2
2018-01-24T21:00:04.644Z,68.4
2018-01-24T21:15:05.748Z,69.1
2018-01-24T21:30:07.592Z,68.6
2018-01-24T21:45:19.768Z,69.9
2018-01-24T22:00:06.301Z,70.3
2018-01-24T22:15:08.266Z,69.4
2018-01-24T22:30:05.558Z,69.4
2018-01-24T22:45:05.639Z,70.1
2018-01-24T23:00:04.642Z,69.3
2018-01-24T23:15:06.260Z,66.4
2018-01-24T23:30:06.356Z,65.6
2018-01-24T23:45:07.405Z,65.3
